createdAt,value
2018-02-15T00:01:00.959Z,-5.50
2018-02-15T00:03:27.246Z,-5.40
2018-02-15T00:05:53.538Z,-5.50
2018-02-15T00:08:19.847Z,-5.50
2018-02-15T00:10:46.129Z,-5.40
2018-02-15T00:13:12.443Z,-5.40
2018-02-15T00:15:39.458Z,-5.40
2018-02-15T00:18:05.743Z,-5.50
2018-02-15T00:20:32.010Z,-5.50
2018-02-15T00:22:58.315Z,-5.50
2018-02-15T00:25:24.632Z,-5.60
2018-02-15T00:27:50.919Z,-5.60
2018-02-15T00:30:17.220Z,-5.60
2018-02-15T00:32:44.522Z,-5.60
2018-02-15T00:35:10.792Z,-5.70
2018-02-15T00:37:37.102Z,-5.70
2018-02-15T00:40:03.394Z,-5.70
2018-02-15T00:42:29.682Z,-5.80
2018-02-15T00:44:55.963Z,-5.80
2018-02-15T00:47:22.246Z,-5.80
2018-02-15T00:49:48.571Z,-5.90
2018-02-15T00:52:15.494Z,-5.80
2018-02-15T00:54:41.835Z,-5.90
2018-02-15T00:57:08.139Z,-5.90
2018-02-15T00:59:35.175Z,-6.00
2018-02-15T01:02:01.480Z,-6.00
2018-02-15T01:04:27.787Z,-6.00
2018-02-15T01:06:54.083Z,-6.00
2018-02-15T01:09:21.103Z,-6.10
2018-02-15T01:11:47.389Z,-6.10
2018-02-15T01:14:13.702Z,-6.20
2018-02-15T01:16:40.000Z,-6.30
2018-02-15T01:19:06.315Z,-6.40
2018-02-15T01:21:32.601Z,-6.40
2018-02-15T01:23:58.905Z,-6.50
2018-02-15T01:26:25.962Z,-6.60
2018-02-15T01:28:52.974Z,-6.50
2018-02-15T01:31:19.336Z,-6.50
2018-02-15T01:33:46.359Z,-6.60
2018-02-15T01:36:12.655Z,-6.70
2018-02-15T01:38:38.949Z,-6.60
2018-02-15T01:41:05.978Z,-6.60
2018-02-15T01:43:32.994Z,-6.60
2018-02-15T01:45:59.296Z,-6.60
2018-02-15T01:48:26.316Z,-6.50
2018-02-15T01:50:53.359Z,-6.50
2018-02-15T01:53:20.410Z,-6.50
2018-02-15T01:55:47.416Z,-6.50
2018-02-15T01:58:13.696Z,-6.50
2018-02-15T02:00:39.990Z,-6.50
2018-02-15T02:03:06.278Z,-6.50
2018-02-15T02:05:32.546Z,-6.50
2018-02-15T02:07:59.055Z,-6.50
2018-02-15T02:10:26.162Z,-6.50
2018-02-15T02:12:53.215Z,-6.60
2018-02-15T02:15:19.516Z,-6.60
2018-02-15T02:17:46.578Z,-6.50
2018-02-15T02:20:13.605Z,-6.50
2018-02-15T02:22:39.906Z,-6.50
2018-02-15T02:25:06.202Z,-6.40
2018-02-15T02:27:32.527Z,-6.40
2018-02-15T02:29:59.574Z,-6.60
2018-02-15T02:32:26.607Z,-6.60
2018-02-15T02:34:53.645Z,-6.60
2018-02-15T02:37:19.954Z,-6.70
2018-02-15T02:39:46.246Z,-6.60
2018-02-15T02:42:12.542Z,-6.50
2018-02-15T02:44:38.839Z,-6.50
2018-02-15T02:47:05.144Z,-6.50
2018-02-15T02:49:31.415Z,-6.60
2018-02-15T02:51:57.708Z,-6.60
2018-02-15T02:54:24.784Z,-6.60
2018-02-15T02:56:51.087Z,-6.60
2018-02-15T02:59:17.368Z,-6.70
2018-02-15T03:01:43.667Z,-6.60
2018-02-15T03:04:09.951Z,-6.60
2018-02-15T03:06:37.005Z,-6.60
2018-02-15T03:09:03.350Z,-6.60
2018-02-15T03:11:29.659Z,-6.60
2018-02-15T03:13:55.950Z,-6.50
2018-02-15T03:16:22.268Z,-6.50
2018-02-15T03:18:48.546Z,-6.40
2018-02-15T03:21:15.570Z,-6.30
2018-02-15T03:23:41.866Z,-6.40
2018-02-15T03:26:08.183Z,-6.40
2018-02-15T03:31:26.620Z,-6.20
2018-02-15T03:33:54.250Z,-6.30
2018-02-15T03:36:20.536Z,-6.30
2018-02-15T03:38:46.850Z,-6.20
2018-02-15T03:41:13.128Z,-6.10
2018-02-15T03:43:39.458Z,-6.20
2018-02-15T03:46:05.740Z,-6.20
2018-02-15T03:48:32.609Z,-6.20
2018-02-15T03:50:58.882Z,-6.30
2018-02-15T03:53:25.152Z,-6.20
2018-02-15T03:55:51.439Z,-6.20
2018-02-15T03:58:19.200Z,-6.40
2018-02-15T04:00:46.238Z,-6.40
2018-02-15T04:03:12.579Z,-6.40
2018-02-15T04:05:38.887Z,-6.50
2018-02-15T04:08:05.174Z,-6.40
2018-02-15T04:10:31.457Z,-6.20
2018-02-15T04:12:57.807Z,-6.20
2018-02-15T04:15:24.120Z,-6.10
2018-02-15T04:17:50.387Z,-6.00
2018-02-15T04:20:17.415Z,-5.80
2018-02-15T04:22:43.694Z,-5.80
2018-02-15T04:25:09.966Z,-5.70
2018-02-15T04:27:37.982Z,-5.60
2018-02-15T04:30:05.425Z,-5.50
2018-02-15T04:32:32.438Z,-5.70
2018-02-15T04:34:58.731Z,-5.70
2018-02-15T04:37:25.027Z,-5.80
2018-02-15T04:39:52.043Z,-5.80
2018-02-15T04:42:18.343Z,-5.80
2018-02-15T04:44:44.610Z,-5.70
2018-02-15T04:47:11.508Z,-5.70
2018-02-15T04:49:37.807Z,-5.60
2018-02-15T04:52:04.854Z,-5.70
2018-02-15T04:54:31.902Z,-5.60
2018-02-15T04:56:58.930Z,-5.60
2018-02-15T04:59:25.970Z,-5.50
2018-02-15T05:01:52.280Z,-5.60
2018-02-15T05:04:18.579Z,-5.60
2018-02-15T05:06:44.855Z,-5.60
2018-02-15T05:09:11.161Z,-5.60
2018-02-15T05:11:37.453Z,-5.50
2018-02-15T05:14:03.750Z,-5.50
2018-02-15T05:16:31.510Z,-5.40
2018-02-15T05:18:57.803Z,-5.40
2018-02-15T05:21:24.110Z,-5.30
2018-02-15T05:23:50.382Z,-5.40
2018-02-15T05:26:17.703Z,-5.50
2018-02-15T05:28:43.974Z,-5.40
2018-02-15T05:31:10.274Z,-5.30
2018-02-15T05:33:36.574Z,-5.30
2018-02-15T05:36:03.594Z,-5.20
2018-02-15T05:38:29.891Z,-5.30
2018-02-15T05:40:56.203Z,-5.20
2018-02-15T05:43:23.135Z,-5.20
2018-02-15T05:45:49.431Z,-5.20
2018-02-15T05:48:15.707Z,-5.20
2018-02-15T05:50:42.003Z,-5.10
2018-02-15T05:53:09.018Z,-5.10
2018-02-15T05:55:35.311Z,-5.10
2018-02-15T05:58:01.615Z,-5.10
2018-02-15T06:00:28.698Z,-5.10
2018-02-15T06:02:55.003Z,-5.10
2018-02-15T06:05:21.311Z,-5.00
2018-02-15T06:07:47.577Z,-4.90
2018-02-15T06:10:13.879Z,-5.00
2018-02-15T06:12:40.895Z,-5.10
2018-02-15T06:15:07.292Z,-5.00
2018-02-15T06:17:33.589Z,-5.00
2018-02-15T06:19:59.878Z,-5.00
2018-02-15T06:22:26.176Z,-4.90
2018-02-15T06:24:53.241Z,-4.80
2018-02-15T06:27:19.535Z,-4.70
2018-02-15T06:29:46.554Z,-4.70
2018-02-15T06:32:12.830Z,-4.70
2018-02-15T06:34:39.127Z,-4.60
2018-02-15T06:37:06.163Z,-4.50
2018-02-15T06:39:32.460Z,-4.50
2018-02-15T06:41:58.748Z,-4.60
2018-02-15T06:44:26.806Z,-4.50
2018-02-15T06:46:53.833Z,-4.50
2018-02-15T06:49:20.119Z,-4.50
2018-02-15T06:51:46.420Z,-4.60
2018-02-15T06:54:13.449Z,-4.40
2018-02-15T06:56:39.729Z,-4.40
2018-02-15T06:59:06.038Z,-4.50
2018-02-15T07:01:33.074Z,-4.40
2018-02-15T07:04:00.130Z,-4.40
2018-02-15T07:06:27.159Z,-4.40
2018-02-15T07:08:54.217Z,-4.20
2018-02-15T07:11:21.252Z,-4.10
2018-02-15T07:13:47.542Z,-4.10
2018-02-15T07:16:13.833Z,-4.10
2018-02-15T07:18:40.874Z,-3.90
2018-02-15T07:21:08.380Z,-3.90
2018-02-15T07:23:34.658Z,-3.90
2018-02-15T07:26:01.691Z,-3.70
2018-02-15T07:28:28.002Z,-3.70
2018-02-15T07:30:54.304Z,-3.60
2018-02-15T07:33:20.595Z,-3.60
2018-02-15T07:35:47.639Z,-3.50
2018-02-15T07:38:14.682Z,-3.40
2018-02-15T07:40:42.710Z,-3.40
2018-02-15T07:43:08.992Z,-3.40
2018-02-15T07:45:36.030Z,-3.10
2018-02-15T07:48:02.347Z,-3.10
2018-02-15T07:50:28.650Z,-2.90
2018-02-15T07:52:54.969Z,-2.80
2018-02-15T07:55:21.274Z,-2.60
2018-02-15T07:57:48.327Z,-2.60
2018-02-15T08:00:14.602Z,-2.70
2018-02-15T08:02:40.879Z,-2.70
2018-02-15T08:05:07.179Z,-2.70
2018-02-15T08:07:33.450Z,-2.70
2018-02-15T08:09:59.759Z,-2.60
2018-02-15T08:12:26.770Z,-2.50
2018-02-15T08:14:53.054Z,-2.50
2018-02-15T08:17:19.367Z,-2.40
2018-02-15T08:19:46.390Z,-2.00
2018-02-15T08:22:12.675Z,-2.10
2018-02-15T08:24:38.963Z,-1.90
2018-02-15T08:27:05.263Z,-1.80
2018-02-15T08:29:31.577Z,-1.80
2018-02-15T08:31:57.875Z,-1.70
2018-02-15T08:34:24.882Z,-1.20
2018-02-15T08:36:51.198Z,-1.30
2018-02-15T08:39:17.506Z,-1.20
2018-02-15T08:41:43.863Z,-1.10
2018-02-15T08:44:10.147Z,-1.00
2018-02-15T08:46:37.215Z,-0.80
2018-02-15T08:49:03.486Z,-0.80
2018-02-15T08:51:29.779Z,-0.70
2018-02-15T08:53:56.078Z,-0.60
2018-02-15T08:56:22.366Z,-0.50
2018-02-15T08:58:48.645Z,-0.40
2018-02-15T09:01:15.658Z,-0.20
2018-02-15T09:03:41.938Z,-0.20
2018-02-15T09:06:08.230Z,-0.10
2018-02-15T09:08:34.531Z,-0.20
2018-02-15T09:11:00.810Z,-0.20
2018-02-15T09:13:27.830Z,0.00
2018-02-15T09:15:54.123Z,0.00
2018-02-15T09:18:20.415Z,0.30
2018-02-15T09:20:47.442Z,0.60
2018-02-15T09:23:13.741Z,0.60
2018-02-15T09:25:40.052Z,0.90
2018-02-15T09:28:06.350Z,1.30
2018-02-15T09:30:33.402Z,1.40
2018-02-15T09:33:00.419Z,1.40
2018-02-15T09:35:26.710Z,1.40
2018-02-15T09:37:53.071Z,1.50
2018-02-15T09:40:19.366Z,1.50
2018-02-15T09:42:46.578Z,1.60
2018-02-15T09:45:13.594Z,1.90
2018-02-15T09:47:39.867Z,1.90
2018-02-15T09:50:07.890Z,2.10
2018-02-15T09:52:35.743Z,2.10
2018-02-15T09:55:02.058Z,2.40
2018-02-15T09:57:28.330Z,2.60
2018-02-15T09:59:55.379Z,2.90
2018-02-15T10:02:22.679Z,2.90
2018-02-15T10:04:52.339Z,3.10
2018-02-15T10:07:18.657Z,3.30
2018-02-15T10:09:45.950Z,3.00
2018-02-15T10:12:12.265Z,3.00
2018-02-15T10:14:42.367Z,2.60
2018-02-15T10:17:09.383Z,2.70
2018-02-15T10:19:35.893Z,2.70
2018-02-15T10:22:02.200Z,2.80
2018-02-15T10:24:28.544Z,3.00
2018-02-15T10:26:55.899Z,2.90
2018-02-15T10:29:22.240Z,3.00
2018-02-15T10:31:48.510Z,3.20
2018-02-15T10:34:14.797Z,3.30
2018-02-15T10:36:41.099Z,3.60
2018-02-15T10:39:08.158Z,3.60
2018-02-15T10:41:35.450Z,3.60
2018-02-15T10:44:01.741Z,3.60
2018-02-15T10:46:28.011Z,3.40
2018-02-15T10:48:54.311Z,3.50
2018-02-15T10:51:20.664Z,3.60
2018-02-15T10:53:46.989Z,3.70
2018-02-15T10:56:13.287Z,3.80
2018-02-15T10:58:42.566Z,3.70
2018-02-15T11:01:14.853Z,3.60
2018-02-15T11:03:41.903Z,3.60
2018-02-15T11:06:08.938Z,3.70
2018-02-15T11:08:35.987Z,3.80
2018-02-15T11:11:02.298Z,3.80
2018-02-15T11:13:28.610Z,3.50
2018-02-15T11:15:55.641Z,3.50
2018-02-15T11:18:22.054Z,3.60
2018-02-15T11:20:49.529Z,4.00
2018-02-15T11:23:15.874Z,4.00
2018-02-15T11:25:42.178Z,4.20
2018-02-15T11:28:08.450Z,4.40
2018-02-15T11:30:34.738Z,4.50
2018-02-15T11:33:01.039Z,4.50
2018-02-15T11:35:28.103Z,4.50
2018-02-15T11:37:54.375Z,4.50
2018-02-15T11:40:20.708Z,4.50
2018-02-15T11:42:47.014Z,4.50
2018-02-15T11:45:13.314Z,4.50
2018-02-15T11:47:40.495Z,4.60
2018-02-15T11:50:06.783Z,4.60
2018-02-15T11:52:33.807Z,4.70
2018-02-15T11:55:00.074Z,4.70
2018-02-15T11:57:26.407Z,4.60
2018-02-15T11:59:53.467Z,4.50
2018-02-15T12:02:19.774Z,4.50
2018-02-15T12:04:46.832Z,4.30
2018-02-15T12:07:13.854Z,4.20
2018-02-15T12:09:40.166Z,4.10
2018-02-15T12:12:06.568Z,4.10
2018-02-15T12:14:32.858Z,4.30
2018-02-15T12:16:59.894Z,4.20
2018-02-15T12:19:26.171Z,4.20
2018-02-15T12:21:53.214Z,4.30
2018-02-15T12:24:19.550Z,4.30
2018-02-15T12:26:45.867Z,4.40
2018-02-15T12:29:12.143Z,4.50
2018-02-15T12:31:38.439Z,4.40
2018-02-15T12:34:04.800Z,4.20
2018-02-15T12:36:31.079Z,4.20
2018-02-15T12:38:57.408Z,4.20
2018-02-15T12:41:23.694Z,4.00
2018-02-15T12:43:49.959Z,4.00
2018-02-15T12:46:18.167Z,3.80
2018-02-15T12:48:44.446Z,3.80
2018-02-15T12:51:10.742Z,3.70
2018-02-15T12:53:37.103Z,3.50
2018-02-15T12:56:03.470Z,3.60
2018-02-15T12:58:30.590Z,3.50
2018-02-15T13:00:56.894Z,3.50
2018-02-15T13:03:23.187Z,3.40
2018-02-15T13:05:49.482Z,3.10
2018-02-15T13:08:15.807Z,2.90
2018-02-15T13:10:42.118Z,3.10
2018-02-15T13:13:20.771Z,3.10
2018-02-15T13:15:59.584Z,3.20
2018-02-15T13:18:26.914Z,3.10
2018-02-15T13:20:53.223Z,2.80
2018-02-15T13:23:19.551Z,2.80
2018-02-15T13:25:46.714Z,3.00
2018-02-15T13:28:26.449Z,3.00
2018-02-15T13:30:52.772Z,3.00
2018-02-15T13:33:19.117Z,2.80
2018-02-15T13:35:45.418Z,2.90
2018-02-15T13:38:11.723Z,2.90
2018-02-15T13:40:38.086Z,2.80
2018-02-15T13:43:05.321Z,2.80
2018-02-15T13:45:31.644Z,2.50
2018-02-15T13:47:58.749Z,2.20
2018-02-15T13:50:26.093Z,2.20
2018-02-15T13:52:52.398Z,2.10
2018-02-15T13:55:18.670Z,2.00
2018-02-15T13:57:44.976Z,1.90
2018-02-15T14:00:11.262Z,2.00
2018-02-15T14:02:38.286Z,2.10
2018-02-15T14:05:04.566Z,2.00
2018-02-15T14:07:30.875Z,2.00
2018-02-15T14:09:57.938Z,2.00
2018-02-15T14:12:24.219Z,1.90
2018-02-15T14:14:50.516Z,1.80
2018-02-15T14:17:16.823Z,1.80
2018-02-15T14:19:43.855Z,1.80
2018-02-15T14:22:10.878Z,1.90
2018-02-15T14:24:37.162Z,1.90
2018-02-15T14:27:03.487Z,2.00
2018-02-15T14:29:29.767Z,1.90
2018-02-15T14:31:56.382Z,1.80
2018-02-15T14:34:22.670Z,1.70
2018-02-15T14:36:49.891Z,1.70
2018-02-15T14:39:17.023Z,1.70
2018-02-15T14:41:43.325Z,1.80
2018-02-15T14:44:11.422Z,1.70
2018-02-15T14:46:37.749Z,1.60
2018-02-15T14:49:05.067Z,1.70
2018-02-15T14:51:31.363Z,1.70
2018-02-15T14:53:57.662Z,1.70
2018-02-15T14:56:23.968Z,1.70
2018-02-15T14:58:50.278Z,1.60
2018-02-15T15:01:16.574Z,1.70
2018-02-15T15:03:42.883Z,1.80
2018-02-15T15:06:09.187Z,1.70
2018-02-15T15:08:35.490Z,1.60
2018-02-15T15:11:01.777Z,1.70
2018-02-15T15:13:28.074Z,1.60
2018-02-15T15:15:54.374Z,1.60
2018-02-15T15:18:20.682Z,1.60
2018-02-15T15:20:47.879Z,1.70
2018-02-15T15:23:14.147Z,1.70
2018-02-15T15:25:40.451Z,1.80
2018-02-15T15:28:06.772Z,1.90
2018-02-15T15:30:33.062Z,1.90
2018-02-15T15:33:00.095Z,1.90
2018-02-15T15:35:26.413Z,1.90
2018-02-15T15:37:52.691Z,1.90
2018-02-15T15:40:19.732Z,1.80
2018-02-15T15:42:46.771Z,1.80
2018-02-15T15:45:13.788Z,1.90
2018-02-15T15:47:40.059Z,1.90
2018-02-15T15:50:07.101Z,2.00
2018-02-15T15:52:34.162Z,2.00
2018-02-15T15:55:01.267Z,2.00
2018-02-15T15:57:27.609Z,2.00
2018-02-15T15:59:53.896Z,2.00
2018-02-15T16:02:20.187Z,2.00
2018-02-15T16:04:47.235Z,2.10
2018-02-15T16:07:14.264Z,2.10
2018-02-15T16:09:40.547Z,2.10
2018-02-15T16:12:06.819Z,2.10
2018-02-15T16:14:33.115Z,2.10
2018-02-15T16:16:59.419Z,2.00
2018-02-15T16:19:26.446Z,2.10
2018-02-15T16:21:52.730Z,2.10
2018-02-15T16:24:19.055Z,2.10
2018-02-15T16:26:45.334Z,2.00
2018-02-15T16:29:11.648Z,2.00
2018-02-15T16:31:37.959Z,2.00
2018-02-15T16:34:04.238Z,2.00
2018-02-15T16:36:31.266Z,2.20
2018-02-15T16:38:58.470Z,2.10
2018-02-15T16:41:24.814Z,2.20
2018-02-15T16:43:51.103Z,2.30
2018-02-15T16:46:18.202Z,2.40
2018-02-15T16:48:44.511Z,2.40
2018-02-15T16:51:10.801Z,2.40
2018-02-15T16:53:38.242Z,2.40
2018-02-15T16:56:05.600Z,2.50
2018-02-15T16:58:31.910Z,2.40
2018-02-15T17:00:58.186Z,2.30
2018-02-15T17:03:25.198Z,2.30
2018-02-15T17:05:51.466Z,2.30
2018-02-15T17:08:17.782Z,2.20
2018-02-15T17:10:44.803Z,2.20
2018-02-15T17:13:11.099Z,2.20
2018-02-15T17:15:37.375Z,2.20
2018-02-15T17:18:03.683Z,2.30
2018-02-15T17:20:29.960Z,2.30
2018-02-15T17:22:57.010Z,2.30
2018-02-15T17:25:24.041Z,2.30
2018-02-15T17:27:51.802Z,2.30
2018-02-15T17:30:18.130Z,2.30
2018-02-15T17:32:44.411Z,2.30
2018-02-15T17:35:10.686Z,2.30
2018-02-15T17:37:37.007Z,2.30
2018-02-15T17:40:03.311Z,2.50
2018-02-15T17:42:29.586Z,2.50
2018-02-15T17:44:56.603Z,2.50
2018-02-15T17:47:22.878Z,2.50
2018-02-15T17:49:49.903Z,2.50
2018-02-15T17:52:16.178Z,2.50
2018-02-15T17:54:42.466Z,2.40
2018-02-15T17:57:08.755Z,2.40
2018-02-15T17:59:35.072Z,2.50
2018-02-15T18:02:01.354Z,2.40
2018-02-15T18:04:27.673Z,2.40
2018-02-15T18:06:53.971Z,2.50
2018-02-15T18:09:20.280Z,2.50
2018-02-15T18:11:47.291Z,2.50
2018-02-15T18:14:13.587Z,2.50
2018-02-15T18:16:39.872Z,2.50
2018-02-15T18:19:06.932Z,2.60
2018-02-15T18:21:34.227Z,2.60
2018-02-15T18:24:00.532Z,2.70
2018-02-15T18:26:26.822Z,2.70
2018-02-15T18:28:53.838Z,2.70
2018-02-15T18:31:20.133Z,2.70
2018-02-15T18:33:46.477Z,2.80
2018-02-15T18:36:12.747Z,2.80
2018-02-15T18:38:39.042Z,2.70
2018-02-15T18:41:05.333Z,2.70
2018-02-15T18:43:31.627Z,2.80
2018-02-15T18:45:57.990Z,2.80
2018-02-15T18:48:25.011Z,2.80
2018-02-15T18:50:51.302Z,2.80
2018-02-15T18:53:17.578Z,2.90
2018-02-15T18:55:43.850Z,2.80
2018-02-15T18:58:11.150Z,2.80
2018-02-15T19:00:37.467Z,2.80
2018-02-15T19:03:03.811Z,2.80
2018-02-15T19:05:30.147Z,2.90
2018-02-15T19:07:56.430Z,2.90
2018-02-15T19:10:22.723Z,2.90
2018-02-15T19:12:49.758Z,3.00
2018-02-15T19:15:16.084Z,2.90
2018-02-15T19:17:42.380Z,3.00
2018-02-15T19:20:08.651Z,3.00
2018-02-15T19:22:34.966Z,3.00
2018-02-15T19:25:01.293Z,3.00
2018-02-15T19:27:27.600Z,3.00
2018-02-15T19:29:53.872Z,3.00
2018-02-15T19:32:20.138Z,3.00
2018-02-15T19:34:46.439Z,2.90
2018-02-15T19:37:13.466Z,2.90
2018-02-15T19:39:40.802Z,2.90
2018-02-15T19:42:07.076Z,2.90
2018-02-15T19:44:33.371Z,2.90
2018-02-15T19:46:59.668Z,2.90
2018-02-15T19:49:25.950Z,2.90
2018-02-15T19:51:52.264Z,2.90
2018-02-15T19:54:18.603Z,2.90
2018-02-15T19:56:44.885Z,2.90
2018-02-15T19:59:11.171Z,3.00
2018-02-15T20:01:37.449Z,3.00
2018-02-15T20:04:03.739Z,3.00
2018-02-15T20:06:30.755Z,3.10
2018-02-15T20:08:57.043Z,3.10
2018-02-15T20:11:23.307Z,3.00
2018-02-15T20:13:49.590Z,3.10
2018-02-15T20:16:16.607Z,3.20
2018-02-15T20:18:42.883Z,3.20
2018-02-15T20:21:09.163Z,3.20
2018-02-15T20:23:35.453Z,3.30
2018-02-15T20:26:08.079Z,3.40
2018-02-15T20:28:34.375Z,3.40
2018-02-15T20:31:01.687Z,3.50
2018-02-15T20:33:28.702Z,3.50
2018-02-15T20:35:55.007Z,3.50
2018-02-15T20:38:27.439Z,3.50
2018-02-15T20:40:53.718Z,3.50
2018-02-15T20:43:19.999Z,3.50
2018-02-15T20:45:47.018Z,3.50
2018-02-15T20:48:13.326Z,3.50
2018-02-15T20:50:46.230Z,3.50
2018-02-15T20:53:18.716Z,3.50
2018-02-15T20:55:45.779Z,3.60
2018-02-15T20:58:12.815Z,3.60
2018-02-15T21:00:39.865Z,3.60
2018-02-15T21:03:06.178Z,3.60
2018-02-15T21:05:32.535Z,3.60
2018-02-15T21:07:59.567Z,3.70
2018-02-15T21:10:26.587Z,3.70
2018-02-15T21:12:52.891Z,3.70
2018-02-15T21:15:19.263Z,3.70
2018-02-15T21:17:47.038Z,3.80
2018-02-15T21:20:14.074Z,3.90
2018-02-15T21:22:40.357Z,3.90
2018-02-15T21:25:06.646Z,3.90
2018-02-15T21:27:33.662Z,3.80
2018-02-15T21:29:59.948Z,3.80
2018-02-15T21:32:26.227Z,3.80
2018-02-15T21:34:52.550Z,3.80
2018-02-15T21:37:18.815Z,3.80
2018-02-15T21:39:45.843Z,4.00
2018-02-15T21:42:12.151Z,3.90
2018-02-15T21:44:38.450Z,3.90
2018-02-15T21:47:04.763Z,3.90
2018-02-15T21:49:31.795Z,4.10
2018-02-15T21:51:58.818Z,4.10
2018-02-15T21:54:25.167Z,4.10
2018-02-15T21:56:51.462Z,4.10
2018-02-15T21:59:17.745Z,4.20
2018-02-15T22:01:44.038Z,4.30
2018-02-15T22:04:10.322Z,4.40
2018-02-15T22:06:36.642Z,4.50
2018-02-15T22:09:04.726Z,4.60
2018-02-15T22:11:30.998Z,4.50
2018-02-15T22:13:57.311Z,4.50
2018-02-15T22:16:23.610Z,4.40
2018-02-15T22:18:49.935Z,4.30
2018-02-15T22:21:16.955Z,4.10
2018-02-15T22:26:11.962Z,4.00
2018-02-15T22:28:38.256Z,4.00
2018-02-15T22:31:04.560Z,4.00
2018-02-15T22:33:32.342Z,4.00
2018-02-15T22:35:58.642Z,4.00
2018-02-15T22:38:25.661Z,4.00
2018-02-15T22:40:51.982Z,4.00
2018-02-15T22:43:18.291Z,4.00
2018-02-15T22:45:44.562Z,4.00
2018-02-15T22:48:10.844Z,4.10
2018-02-15T22:50:37.882Z,4.10
2018-02-15T22:53:04.163Z,4.10
2018-02-15T22:55:30.481Z,4.10
2018-02-15T22:57:56.763Z,4.10
2018-02-15T23:00:23.778Z,4.20
2018-02-15T23:02:50.054Z,4.10
2018-02-15T23:05:16.363Z,4.20
2018-02-15T23:07:42.698Z,4.20
2018-02-15T23:10:09.717Z,4.20
2018-02-15T23:12:36.007Z,4.20
2018-02-15T23:15:02.333Z,4.20
2018-02-15T23:17:28.606Z,4.30
2018-02-15T23:19:54.912Z,4.30
2018-02-15T23:22:21.320Z,4.30
2018-02-15T23:24:47.598Z,4.40
2018-02-15T23:27:13.912Z,4.30
2018-02-15T23:29:41.198Z,4.30
2018-02-15T23:32:08.487Z,4.20
2018-02-15T23:34:34.787Z,4.20
2018-02-15T23:37:01.826Z,4.20
2018-02-15T23:39:28.111Z,4.20
2018-02-15T23:41:54.490Z,4.10
2018-02-15T23:44:21.520Z,4.10
2018-02-15T23:46:47.803Z,4.10
2018-02-15T23:49:14.815Z,4.20
2018-02-15T23:51:41.103Z,4.20
2018-02-15T23:54:07.375Z,4.20
2018-02-15T23:56:33.660Z,4.30
2018-02-15T23:58:59.966Z,4.30
